createdAt,value
2023-02-19T00:03:03.012Z,100098.45
2023-02-19T00:06:05.445Z,100091.17
2023-02-19T00:09:23.900Z,100082.70
2023-02-19T00:12:52.503Z,100081.98
2023-02-19T00:16:02.692Z,100088.58
2023-02-19T00:19:42.887Z,100090.14
2023-02-19T00:23:01.073Z,100085.80
2023-02-19T00:26:37.768Z,100085.64
2023-02-19T00:29:58.364Z,100082.00
2023-02-19T00:33:29.021Z,100081.13
2023-02-19T00:36:54.992Z,100074.04
2023-02-19T00:39:53.688Z,100070.92
2023-02-19T00:43:05.981Z,100071.27
2023-02-19T00:46:53.354Z,100068.50
2023-02-19T00:50:20.594Z,100067.98
2023-02-19T00:52:53.327Z,100066.23
2023-02-19T00:56:13.155Z,100067.29
2023-02-19T00:59:05.202Z,100070.39
2023-02-19T01:02:34.239Z,100077.33
2023-02-19T01:05:21.232Z,100079.74
2023-02-19T01:08:33.328Z,100075.43
2023-02-19T01:11:42.324Z,100070.58
2023-02-19T01:14:54.821Z,100071.44
2023-02-19T01:17:49.699Z,100075.94
2023-02-19T01:20:19.144Z,100070.73
2023-02-19T01:23:22.289Z,100072.30
2023-02-19T01:26:43.970Z,100073.17
2023-02-19T01:30:31.362Z,100067.10
2023-02-19T01:33:59.599Z,100064.16
2023-02-19T01:37:11.180Z,100065.20
2023-02-19T01:40:49.499Z,100067.46
2023-02-19T01:44:18.691Z,100072.30
2023-02-19T01:47:09.448Z,100075.59
2023-02-19T01:50:15.993Z,100076.98
2023-02-19T01:53:43.087Z,100073.86
2023-02-19T01:57:23.232Z,100074.55
2023-02-19T02:01:11.168Z,100073.69
2023-02-19T02:04:48.607Z,100072.81
2023-02-19T02:08:34.291Z,100070.23
2023-02-19T02:11:55.811Z,100066.75
2023-02-19T02:15:21.685Z,100066.06
2023-02-19T02:19:01.708Z,100065.71
2023-02-19T02:22:23.247Z,100058.79
2023-02-19T02:26:00.246Z,100060.34
2023-02-19T02:29:15.360Z,100067.63
2023-02-19T02:32:47.761Z,100071.09
2023-02-19T02:36:05.766Z,100078.38
2023-02-19T02:39:48.582Z,100085.65
2023-02-19T02:43:16.072Z,100082.52
2023-02-19T02:46:37.888Z,100074.21
2023-02-19T02:49:58.291Z,100074.03
2023-02-19T02:53:13.357Z,100077.69
2023-02-19T02:56:50.525Z,100078.89
2023-02-19T03:00:07.436Z,100077.16
2023-02-19T03:03:25.963Z,100073.17
2023-02-19T03:06:46.203Z,100069.18
2023-02-19T03:10:07.255Z,100062.76
2023-02-19T03:13:52.984Z,100054.80
2023-02-19T03:17:14.136Z,100059.31
2023-02-19T03:20:43.909Z,100058.96
2023-02-19T03:24:07.307Z,100061.91
2023-02-19T03:27:54.968Z,100064.33
2023-02-19T03:31:13.301Z,100071.09
2023-02-19T03:34:53.290Z,100074.37
2023-02-19T03:38:32.368Z,100068.84
2023-02-19T03:41:32.535Z,100066.42
2023-02-19T03:45:38.379Z,100068.67
2023-02-19T03:49:07.666Z,100069.02
2023-02-19T03:52:40.573Z,100056.90
2023-02-19T03:56:31.101Z,100057.93
2023-02-19T04:00:07.431Z,100048.41
2023-02-19T04:04:00.398Z,100040.96
2023-02-19T04:07:47.724Z,100042.86
2023-02-19T04:11:26.657Z,100044.25
2023-02-19T04:15:13.065Z,100050.14
2023-02-19T04:18:42.400Z,100046.14
2023-02-19T04:21:59.770Z,100037.31
2023-02-19T04:25:22.209Z,100037.83
2023-02-19T04:29:09.567Z,100034.37
2023-02-19T04:32:34.481Z,100033.50
2023-02-19T04:35:57.092Z,100031.60
2023-02-19T04:39:21.385Z,100030.04
2023-02-19T04:43:08.750Z,100024.31
2023-02-19T04:46:40.753Z,100023.98
2023-02-19T04:50:20.030Z,100028.29
2023-02-19T04:54:07.373Z,100034.87
2023-02-19T04:57:35.427Z,100039.70
2023-02-19T05:01:02.847Z,100031.38
2023-02-19T05:04:32.562Z,100022.91
2023-02-19T05:07:59.654Z,100017.90
2023-02-19T05:11:46.715Z,100020.31
2023-02-19T05:15:12.954Z,100023.23
2023-02-19T05:18:34.113Z,100018.23
2023-02-19T05:22:20.353Z,100015.46
2023-02-19T05:25:44.187Z,100017.36
2023-02-19T05:28:57.249Z,100025.66
2023-02-19T05:31:56.701Z,100019.26
2023-02-19T05:35:07.755Z,100017.16
2023-02-19T05:38:14.919Z,100020.12
2023-02-19T05:41:45.922Z,100010.60
2023-02-19T05:44:42.906Z,100013.02
2023-02-19T05:47:44.244Z,100004.71
2023-02-19T05:50:56.738Z,99997.80
2023-02-19T05:53:43.752Z,99997.63
2023-02-19T05:57:07.947Z,100006.27
2023-02-19T06:00:46.245Z,100007.84
2023-02-19T06:03:39.777Z,100006.45
2023-02-19T06:07:07.057Z,100004.71
2023-02-19T06:10:23.590Z,100006.11
2023-02-19T06:13:53.911Z,100004.73
2023-02-19T06:17:41.369Z,100005.61
2023-02-19T06:21:23.245Z,100013.21
2023-02-19T06:25:06.458Z,100013.04
2023-02-19T06:28:26.263Z,100016.67
2023-02-19T06:32:03.723Z,100021.52
2023-02-19T06:35:24.652Z,100024.80
2023-02-19T06:38:27.502Z,100023.25
2023-02-19T06:41:37.915Z,100019.80
2023-02-19T06:44:47.475Z,100015.30
2023-02-19T06:47:52.638Z,100019.45
2023-02-19T06:51:21.893Z,100013.23
2023-02-19T06:54:44.467Z,100011.48
2023-02-19T06:58:01.545Z,100015.48
2023-02-19T07:01:05.995Z,100021.02
2023-02-19T07:04:37.990Z,100029.31
2023-02-19T07:07:55.549Z,100028.46
2023-02-19T07:11:15.049Z,100031.06
2023-02-19T07:14:25.481Z,100034.52
2023-02-19T07:17:29.382Z,100033.13
2023-02-19T07:20:57.549Z,100035.40
2023-02-19T07:24:05.919Z,100036.96
2023-02-19T07:26:57.888Z,100035.73
2023-02-19T07:30:06.138Z,100046.48
2023-02-19T07:33:24.735Z,100044.91
2023-02-19T07:36:26.689Z,100046.48
2023-02-19T07:40:03.986Z,100047.86
2023-02-19T07:43:42.215Z,100046.14
2023-02-19T07:47:19.374Z,100049.42
2023-02-19T07:50:46.668Z,100050.63
2023-02-19T07:54:10.729Z,100045.98
2023-02-19T07:57:20.337Z,100052.05
2023-02-19T08:00:33.227Z,100050.48
2023-02-19T08:03:50.583Z,100052.21
2023-02-19T08:07:10.987Z,100056.89
2023-02-19T08:09:40.649Z,100053.43
2023-02-19T08:13:40.197Z,100055.86
2023-02-19T08:17:00.958Z,100057.59
2023-02-19T08:20:38.520Z,100061.56
2023-02-19T08:23:51.016Z,100072.30
2023-02-19T08:26:42.857Z,100073.34
2023-02-19T08:29:39.816Z,100076.98
2023-02-19T08:33:09.575Z,100074.20
2023-02-19T08:36:34.955Z,100080.26
2023-02-19T08:40:02.549Z,100085.28
2023-02-19T08:43:32.460Z,100086.32
2023-02-19T08:46:53.359Z,100085.45
2023-02-19T08:50:12.364Z,100084.59
2023-02-19T08:53:50.802Z,100086.31
2023-02-19T08:56:46.209Z,100082.69
2023-02-19T09:00:13.479Z,100084.23
2023-02-19T09:04:00.897Z,100077.31
2023-02-19T09:06:39.981Z,100080.60
2023-02-19T09:09:52.278Z,100080.60
2023-02-19T09:13:12.097Z,100077.81
2023-02-19T09:16:11.092Z,100081.10
2023-02-19T09:19:41.621Z,100081.27
2023-02-19T09:22:34.330Z,100081.79
2023-02-19T09:25:27.451Z,100087.50
2023-02-19T09:28:34.689Z,100087.66
2023-02-19T09:31:37.661Z,100088.02
2023-02-19T09:34:55.007Z,100086.96
2023-02-19T09:37:45.966Z,100086.25
2023-02-19T09:41:07.118Z,100091.29
2023-02-19T09:44:04.204Z,100091.45
2023-02-19T09:47:20.736Z,100088.65
2023-02-19T09:50:25.292Z,100084.14
2023-02-19T09:54:05.090Z,100087.23
2023-02-19T09:57:22.482Z,100087.55
2023-02-19T10:00:40.813Z,100087.17
2023-02-19T10:04:28.169Z,100088.19
2023-02-19T10:07:44.037Z,100086.73
2023-02-19T10:11:13.950Z,100086.17
2023-02-19T10:14:24.917Z,100087.31
2023-02-19T10:18:03.460Z,100084.51
2023-02-19T10:21:21.618Z,100093.69
2023-02-19T10:24:59.839Z,100097.69
2023-02-19T10:28:17.211Z,100097.70
2023-02-19T10:31:47.627Z,100095.06
2023-02-19T10:35:25.709Z,100096.96
2023-02-19T10:38:54.870Z,100098.67
2023-02-19T10:42:10.709Z,100101.23
2023-02-19T10:45:40.949Z,100102.08
2023-02-19T10:49:04.877Z,100110.58
2023-02-19T10:52:31.981Z,100112.45
2023-02-19T10:55:45.872Z,100115.55
2023-02-19T10:59:14.737Z,100114.64
2023-02-19T11:02:57.584Z,100118.46
2023-02-19T11:06:08.061Z,100115.35
2023-02-19T11:09:17.726Z,100117.60
2023-02-19T11:12:41.439Z,100115.17
2023-02-19T11:16:01.157Z,100120.89
2023-02-19T11:19:38.496Z,100121.75
2023-02-19T11:23:20.176Z,100123.45
2023-02-19T11:26:40.190Z,100121.17
2023-02-19T11:29:55.399Z,100121.14
2023-02-19T11:32:58.262Z,100123.38
2023-02-19T11:36:30.286Z,100123.03
2023-02-19T11:39:49.968Z,100125.26
2023-02-19T11:43:15.639Z,100119.50
2023-02-19T11:46:57.314Z,100124.52
2023-02-19T11:50:16.729Z,100122.94
2023-02-19T11:53:33.412Z,100129.00
2023-02-19T11:56:51.295Z,100127.59
2023-02-19T12:00:35.632Z,100124.42
2023-02-19T12:04:35.690Z,100133.08
2023-02-19T12:08:28.543Z,100136.20
2023-02-19T12:11:58.964Z,100136.73
2023-02-19T12:15:37.270Z,100138.45
2023-02-19T12:19:07.502Z,100141.06
2023-02-19T12:22:48.834Z,100140.55
2023-02-19T12:26:36.772Z,100152.21
2023-02-19T12:30:29.969Z,100162.84
2023-02-19T12:34:06.027Z,100170.85
2023-02-19T12:37:59.639Z,100175.05
2023-02-19T12:41:36.427Z,100175.40
2023-02-19T12:45:26.560Z,100180.61
2023-02-19T12:48:59.721Z,100181.13
2023-02-19T12:52:16.592Z,100180.89
2023-02-19T12:55:41.322Z,100174.08
2023-02-19T12:59:08.529Z,100179.23
2023-02-19T13:02:50.535Z,100181.07
2023-02-19T13:05:57.842Z,100182.26
2023-02-19T13:09:31.105Z,100181.89
2023-02-19T13:12:29.692Z,100184.29
2023-02-19T13:15:40.823Z,100183.02
2023-02-19T13:18:55.352Z,100179.98
2023-02-19T13:22:22.401Z,100182.19
2023-02-19T13:25:52.190Z,100186.48
2023-02-19T13:29:08.594Z,100189.20
2023-02-19T13:32:44.515Z,100193.16
2023-02-19T13:36:19.697Z,100200.10
2023-02-19T13:43:00.539Z,100201.65
2023-02-19T13:46:23.008Z,100207.05
2023-02-19T13:50:03.221Z,100210.21
2023-02-19T13:53:36.135Z,100221.36
2023-02-19T13:56:51.216Z,100227.98
2023-02-19T13:59:39.654Z,100224.67
2023-02-19T14:02:47.154Z,100229.02
2023-02-19T14:06:10.773Z,100229.91
2023-02-19T14:09:49.132Z,100231.18
2023-02-19T14:12:58.909Z,100241.98
2023-02-19T14:16:19.644Z,100249.50
2023-02-19T14:20:21.683Z,100254.92
2023-02-19T14:23:53.441Z,100260.19
2023-02-19T14:27:34.727Z,100260.73
2023-02-19T14:31:07.769Z,100259.75
2023-02-19T14:34:29.512Z,100261.70
2023-02-19T14:37:51.480Z,100258.95
2023-02-19T14:41:32.655Z,100264.54
2023-02-19T14:44:59.967Z,100268.73
2023-02-19T14:48:45.952Z,100275.88
2023-02-19T14:51:52.309Z,100280.77
2023-02-19T14:55:12.086Z,100283.23
2023-02-19T14:59:03.510Z,100285.50
2023-02-19T15:02:30.039Z,100289.33
2023-02-19T15:05:37.024Z,100295.45
2023-02-19T15:09:24.272Z,100301.38
2023-02-19T15:12:48.768Z,100308.16
2023-02-19T15:16:26.213Z,100321.76
2023-02-19T15:20:04.490Z,100331.33
2023-02-19T15:23:36.276Z,100340.92
2023-02-19T15:26:50.831Z,100333.84
2023-02-19T15:29:41.946Z,100334.55
2023-02-19T15:33:31.997Z,100336.98
2023-02-19T15:37:17.360Z,100346.56
2023-02-19T15:40:52.706Z,100345.88
2023-02-19T15:44:19.862Z,100347.10
2023-02-19T15:48:09.979Z,100349.36
2023-02-19T15:51:08.865Z,100354.93
2023-02-19T15:54:35.340Z,100362.23
2023-02-19T15:58:13.960Z,100362.93
2023-02-19T16:02:38.142Z,100363.11
2023-02-19T16:06:04.825Z,100373.02
2023-02-19T16:09:50.681Z,100379.45
2023-02-19T16:13:21.019Z,100386.92
2023-02-19T16:17:16.789Z,100393.36
2023-02-19T16:21:02.731Z,100399.80
2023-02-19T16:24:11.758Z,100406.92
2023-02-19T16:27:42.159Z,100413.88
2023-02-19T16:31:35.466Z,100423.59
2023-02-19T16:35:24.339Z,100430.73
2023-02-19T16:38:56.547Z,100434.52
2023-02-19T16:42:35.505Z,100436.60
2023-02-19T16:46:02.165Z,100443.04
2023-02-19T16:49:20.174Z,100446.67
2023-02-19T16:52:48.304Z,100448.92
2023-02-19T16:55:53.449Z,100452.75
2023-02-19T16:59:33.666Z,100451.35
2023-02-19T17:03:21.034Z,100451.19
2023-02-19T17:06:40.918Z,100458.13
2023-02-19T17:10:18.502Z,100461.95
2023-02-19T17:13:58.698Z,100460.89
2023-02-19T17:17:46.049Z,100466.79
2023-02-19T17:21:05.984Z,100477.02
2023-02-19T17:24:25.919Z,100478.39
2023-02-19T17:27:38.273Z,100484.63
2023-02-19T17:31:00.279Z,100485.14
2023-02-19T17:34:10.513Z,100489.80
2023-02-19T17:37:05.795Z,100496.38
2023-02-19T17:40:10.731Z,100498.80
2023-02-19T17:43:21.502Z,100506.60
2023-02-19T17:46:11.267Z,100509.88
2023-02-19T17:49:13.508Z,100510.57
2023-02-19T17:51:56.283Z,100518.00
2023-02-19T17:55:13.486Z,100519.02
2023-02-19T17:58:48.081Z,100527.86
2023-02-19T18:02:05.314Z,100536.33
2023-02-19T18:05:35.485Z,100542.73
2023-02-19T18:09:05.095Z,100545.99
2023-02-19T18:11:55.173Z,100557.59
2023-02-19T18:15:04.914Z,100561.90
2023-02-19T18:18:52.268Z,100563.44
2023-02-19T18:22:09.335Z,100570.87
2023-02-19T18:25:46.693Z,100576.89
2023-02-19T18:29:13.841Z,100572.52
2023-02-19T18:32:08.620Z,100579.77
2023-02-19T18:35:26.493Z,100573.16
2023-02-19T18:38:37.734Z,100576.78
2023-02-19T18:42:08.155Z,100582.98
2023-02-19T18:45:28.787Z,100579.50
2023-02-19T18:49:16.256Z,100583.09
2023-02-19T18:52:29.980Z,100590.33
2023-02-19T18:56:00.312Z,100590.29
2023-02-19T18:59:09.680Z,100601.17
2023-02-19T19:02:14.520Z,100610.13
2023-02-19T19:05:12.878Z,100612.86
2023-02-19T19:08:19.957Z,100615.75
2023-02-19T19:11:27.286Z,100621.77
2023-02-19T19:14:28.268Z,100625.70
2023-02-19T19:17:54.689Z,100624.80
2023-02-19T19:21:12.957Z,100630.14
2023-02-19T19:24:12.552Z,100636.84
2023-02-19T19:27:28.478Z,100635.92
2023-02-19T19:30:45.626Z,100644.71
2023-02-19T19:33:52.729Z,100647.94
2023-02-19T19:37:28.098Z,100654.12
2023-02-19T19:40:48.540Z,100655.27
2023-02-19T19:44:15.479Z,100663.34
2023-02-19T19:47:32.762Z,100666.95
2023-02-19T19:50:40.978Z,100669.30
2023-02-19T19:53:59.204Z,100671.15
2023-02-19T19:57:42.196Z,100670.08
2023-02-19T20:01:11.275Z,100665.20
2023-02-19T20:04:06.043Z,100668.26
2023-02-19T20:07:33.310Z,100667.02
2023-02-19T20:10:45.378Z,100675.13
2023-02-19T20:14:10.776Z,100671.13
2023-02-19T20:17:37.901Z,100671.63
2023-02-19T20:21:10.743Z,100676.77
2023-02-19T20:24:24.198Z,100682.27
2023-02-19T20:27:42.662Z,100682.24
2023-02-19T20:31:20.061Z,100686.68
2023-02-19T20:34:24.517Z,100692.02
2023-02-19T20:37:50.373Z,100692.14
2023-02-19T20:41:20.383Z,100696.56
2023-02-19T20:44:30.116Z,100702.23
2023-02-19T20:47:36.928Z,100708.59
2023-02-19T20:51:01.400Z,100708.55
2023-02-19T20:54:08.661Z,100718.52
2023-02-19T20:57:29.468Z,100726.42
2023-02-19T21:00:29.661Z,100733.44
2023-02-19T21:03:28.663Z,100734.92
2023-02-19T21:06:21.688Z,100739.70
2023-02-19T21:09:09.453Z,100737.05
2023-02-19T21:12:31.622Z,100736.48
2023-02-19T21:15:22.287Z,100746.95
2023-02-19T21:18:25.713Z,100749.52
2023-02-19T21:21:52.921Z,100746.52
2023-02-19T21:24:55.448Z,100739.58
2023-02-19T21:27:54.736Z,100735.41
2023-02-19T21:31:42.163Z,100741.58
2023-02-19T21:34:31.091Z,100737.95
2023-02-19T21:37:42.958Z,100735.64
2023-02-19T21:40:52.918Z,100735.45
2023-02-19T21:43:43.805Z,100734.74
2023-02-19T21:46:49.646Z,100738.68
2023-02-19T21:50:08.306Z,100747.14
2023-02-19T21:52:49.424Z,100753.50
2023-02-19T21:55:30.486Z,100757.64
2023-02-19T21:58:57.762Z,100761.42
2023-02-19T22:01:53.755Z,100761.92
2023-02-19T22:05:03.863Z,100755.86
2023-02-19T22:08:16.540Z,100766.54
2023-02-19T22:11:34.510Z,100772.73
2023-02-19T22:14:36.411Z,100778.39
2023-02-19T22:17:20.593Z,100778.38
2023-02-19T22:20:30.319Z,100775.42
2023-02-19T22:23:37.465Z,100778.69
2023-02-19T22:26:44.906Z,100782.83
2023-02-19T22:30:06.132Z,100783.30
2023-02-19T22:32:55.389Z,100775.17
2023-02-19T22:36:45.468Z,100770.66
2023-02-19T22:39:37.417Z,100774.98
2023-02-19T22:42:27.126Z,100773.41
2023-02-19T22:45:56.765Z,100770.67
2023-02-19T22:48:55.233Z,100764.72
2023-02-19T22:51:27.011Z,100766.13
2023-02-19T22:54:31.010Z,100771.53
2023-02-19T22:57:43.181Z,100771.92
2023-02-19T23:01:11.401Z,100771.95
2023-02-19T23:04:33.937Z,100757.45
2023-02-19T23:07:41.817Z,100750.70
2023-02-19T23:11:19.109Z,100759.34
2023-02-19T23:14:23.536Z,100765.73
2023-02-19T23:17:43.534Z,100768.48
2023-02-19T23:20:53.738Z,100769.73
2023-02-19T23:23:53.355Z,100781.17
2023-02-19T23:27:11.578Z,100782.11
2023-02-19T23:30:38.193Z,100783.71
2023-02-19T23:34:18.490Z,100774.88
2023-02-19T23:37:19.487Z,100778.23
2023-02-19T23:40:22.795Z,100782.77
2023-02-19T23:43:48.684Z,100776.89
2023-02-19T23:46:55.870Z,100769.12
2023-02-19T23:50:01.847Z,100757.19
2023-02-19T23:53:14.386Z,100749.77
2023-02-19T23:56:54.689Z,100747.00
